Time;durP1;ratioP1;P1;durP2;ratioP2;P2;SDS_P1;SDS_P2;PMS_P1;PMS_P2;Temp;Humidity;BMP_temperature;BMP_pressure;BME280_temperature;BME280_humidity;BME280_pressure;Samples;Min_cycle;Max_cycle;Signal;HPM_P1;HPM_P2
2023/07/20 00:01:49;;;;;;;1.55;0.93;;;23.20;77.10;;;;;;5090010;27;45379;-64
2023/07/20 00:04:15;;;;;;;1.83;0.93;;;23.20;77.00;;;;;;5095497;27;45156;-63
2023/07/20 00:06:42;;;;;;;0.98;0.70;;;23.20;77.00;;;;;;5085526;27;45143;-65
2023/07/20 00:09:09;;;;;;;2.08;1.00;;;23.20;77.10;;;;;;5089433;27;45172;-64
2023/07/20 00:11:38;;;;;;;0.75;0.73;;;23.20;77.10;;;;;;5077090;27;45434;-63
2023/07/20 00:14:05;;;;;;;1.60;0.82;;;23.20;77.10;;;;;;5079460;27;47478;-64
2023/07/20 00:16:31;;;;;;;1.42;0.80;;;23.20;77.30;;;;;;5084169;27;45269;-64
2023/07/20 00:19:00;;;;;;;1.35;0.70;;;23.20;77.30;;;;;;5083724;27;45256;-63
2023/07/20 00:21:26;;;;;;;1.60;0.85;;;23.20;77.20;;;;;;5087301;27;45203;-63
2023/07/20 00:23:53;;;;;;;0.90;0.70;;;23.20;77.30;;;;;;5087776;27;47474;-64
2023/07/20 00:26:20;;;;;;;1.10;0.80;;;23.20;77.30;;;;;;5085450;27;45162;-64
2023/07/20 00:28:47;;;;;;;1.75;0.90;;;23.20;77.40;;;;;;5084987;27;45186;-64
2023/07/20 00:31:14;;;;;;;2.47;0.65;;;23.20;77.50;;;;;;5095694;27;45306;-63
2023/07/20 00:33:40;;;;;;;1.20;1.00;;;23.20;77.40;;;;;;5097023;27;46250;-63
2023/07/20 00:36:09;;;;;;;1.48;1.00;;;23.20;77.50;;;;;;5086737;27;45213;-63
2023/07/20 00:38:35;;;;;;;1.67;0.82;;;23.20;77.40;;;;;;5084628;27;45237;-63
2023/07/20 00:41:02;;;;;;;1.30;0.70;;;23.20;77.50;;;;;;5084250;27;45208;-63
2023/07/20 00:43:29;;;;;;;1.40;0.90;;;23.20;77.50;;;;;;5085162;27;45187;-64
2023/07/20 00:45:56;;;;;;;0.98;0.82;;;23.20;77.50;;;;;;5084315;27;45176;-64
2023/07/20 00:48:24;;;;;;;1.00;0.90;;;23.20;77.60;;;;;;5084946;28;45205;-64
2023/07/20 00:50:51;;;;;;;4.40;0.90;;;23.20;77.50;;;;;;5083790;27;45102;-63
2023/07/20 00:53:20;;;;;;;1.42;0.88;;;23.20;77.50;;;;;;5083192;27;45410;-64
2023/07/20 00:55:47;;;;;;;1.05;0.82;;;23.20;77.50;;;;;;5089146;27;45347;-64
2023/07/20 00:58:13;;;;;;;1.98;0.90;;;23.20;77.50;;;;;;5084341;27;45331;-64
2023/07/20 01:00:40;;;;;;;1.83;0.73;;;23.20;77.60;;;;;;5084148;27;45291;-64
2023/07/20 01:03:07;;;;;;;1.15;0.80;;;23.20;77.60;;;;;;5092238;27;46245;-64
2023/07/20 01:05:41;;;;;;;1.70;0.75;;;23.20;77.60;;;;;;5084127;27;45153;-64
2023/07/20 01:08:14;;;;;;;1.40;0.90;;;23.20;77.70;;;;;;5084482;27;45082;-63
2023/07/20 01:10:47;;;;;;;2.78;1.08;;;23.20;77.70;;;;;;5083663;27;45273;-64
2023/07/20 01:13:15;;;;;;;1.10;0.80;;;23.20;77.70;;;;;;5088039;27;46240;-64
2023/07/20 01:15:42;;;;;;;2.28;1.10;;;23.20;77.80;;;;;;5083534;27;45247;-64
2023/07/20 01:18:09;;;;;;;1.48;1.10;;;23.20;77.80;;;;;;5089026;27;45193;-64
2023/07/20 01:20:38;;;;;;;6.50;1.27;;;23.20;78.90;;;;;;5081239;27;45385;-64
2023/07/20 01:23:35;;;;;;;1.38;1.02;;;23.20;78.00;;;;;;5083972;28;46324;-64
2023/07/20 01:26:13;;;;;;;1.48;0.90;;;23.20;78.10;;;;;;5089042;27;45183;-64
2023/07/20 01:29:13;;;;;;;2.67;1.13;;;23.20;78.20;;;;;;5102584;27;45160;-64
2023/07/20 01:31:43;;;;;;;0.95;0.73;;;23.20;78.40;;;;;;5090366;27;45264;-64
2023/07/20 01:34:13;;;;;;;1.40;0.73;;;23.20;78.40;;;;;;5100081;27;46250;-63
2023/07/20 01:36:41;;;;;;;2.40;1.20;;;23.20;78.50;;;;;;5098038;27;45132;-63
2023/07/20 01:39:09;;;;;;;2.05;0.82;;;23.20;78.60;;;;;;5083924;27;45227;-64
2023/07/20 01:41:37;;;;;;;1.48;0.90;;;23.20;78.80;;;;;;5089438;27;45226;-64
2023/07/20 01:44:05;;;;;;;1.77;1.02;;;23.20;78.70;;;;;;5084056;27;45194;-63
2023/07/20 01:46:31;;;;;;;2.45;1.00;;;23.20;78.90;;;;;;5084647;27;45982;-63
2023/07/20 01:49:00;;;;;;;1.65;0.93;;;23.20;78.90;;;;;;5092614;27;45125;-64
2023/07/20 01:51:27;;;;;;;2.00;0.90;;;23.20;78.90;;;;;;5095427;27;45294;-64
2023/07/20 01:53:53;;;;;;;2.03;1.00;;;23.20;79.00;;;;;;5083275;28;47290;-64
2023/07/20 01:56:20;;;;;;;1.63;1.08;;;23.20;79.10;;;;;;5088886;27;45298;-65
2023/07/20 01:58:47;;;;;;;0.80;0.70;;;23.20;79.10;;;;;;5082151;27;45312;-64
2023/07/20 02:01:14;;;;;;;1.38;0.88;;;23.20;79.20;;;;;;5084391;27;45205;-64
2023/07/20 02:03:40;;;;;;;3.10;1.00;;;23.20;79.10;;;;;;5097732;27;45207;-63
2023/07/20 02:06:08;;;;;;;2.03;1.00;;;23.10;79.10;;;;;;5085524;27;45247;-64
2023/07/20 02:08:35;;;;;;;1.25;0.85;;;23.10;79.20;;;;;;5088565;27;45189;-63
2023/07/20 02:11:02;;;;;;;1.20;1.00;;;23.10;79.30;;;;;;5085044;27;45272;-64
2023/07/20 02:13:29;;;;;;;2.20;1.25;;;23.10;79.30;;;;;;5088329;27;45178;-64
2023/07/20 02:15:56;;;;;;;1.90;1.10;;;23.10;79.30;;;;;;5092214;27;45157;-63
2023/07/20 02:18:22;;;;;;;1.02;0.93;;;23.20;79.20;;;;;;5084334;27;45094;-65
2023/07/20 02:20:49;;;;;;;2.15;1.10;;;23.10;79.30;;;;;;5085047;27;45239;-64
2023/07/20 02:23:17;;;;;;;2.13;1.13;;;23.20;79.40;;;;;;5088052;27;47025;-63
2023/07/20 02:25:44;;;;;;;1.92;1.13;;;23.10;79.40;;;;;;5089723;27;45248;-64
2023/07/20 02:28:14;;;;;;;2.25;1.05;;;23.10;79.40;;;;;;5099611;27;45228;-64
2023/07/20 02:30:41;;;;;;;2.88;1.23;;;23.10;79.40;;;;;;5088669;27;45202;-64
2023/07/20 02:33:08;;;;;;;2.47;1.10;;;23.10;79.40;;;;;;5095153;27;46277;-64
2023/07/20 02:35:35;;;;;;;3.50;1.17;;;23.20;79.60;;;;;;5098275;27;45266;-64
2023/07/20 02:38:03;;;;;;;2.28;1.23;;;23.10;79.60;;;;;;5092440;27;45393;-63
2023/07/20 02:40:31;;;;;;;1.63;1.10;;;23.10;79.60;;;;;;5103948;27;45180;-64
2023/07/20 02:42:57;;;;;;;1.58;0.90;;;23.10;79.80;;;;;;5086332;27;46370;-66
2023/07/20 02:45:24;;;;;;;1.42;0.90;;;23.10;79.80;;;;;;5090726;27;45299;-64
2023/07/20 02:47:51;;;;;;;2.25;1.17;;;23.10;79.90;;;;;;5092225;27;45241;-64
2023/07/20 02:50:18;;;;;;;1.23;0.88;;;23.10;79.90;;;;;;5094679;27;45395;-64
2023/07/20 02:52:45;;;;;;;1.67;1.02;;;23.10;80.00;;;;;;5087029;27;47117;-64
2023/07/20 02:55:12;;;;;;;2.35;1.27;;;23.10;79.90;;;;;;5078584;27;45340;-64
2023/07/20 02:57:40;;;;;;;2.50;0.90;;;23.10;79.90;;;;;;5083675;28;45213;-63
2023/07/20 03:00:08;;;;;;;1.40;0.88;;;23.10;79.90;;;;;;5082423;27;45331;-63
2023/07/20 03:02:35;;;;;;;2.47;1.20;;;23.10;79.90;;;;;;5092597;27;47981;-64
2023/07/20 03:05:05;;;;;;;2.83;1.00;;;23.10;80.00;;;;;;5086956;27;45176;-64
2023/07/20 03:07:32;;;;;;;2.25;1.00;;;23.10;80.00;;;;;;5082764;28;45153;-64
2023/07/20 03:09:59;;;;;;;4.82;1.00;;;23.10;80.10;;;;;;5081116;28;45339;-64
2023/07/20 03:12:26;;;;;;;1.65;1.17;;;23.10;80.00;;;;;;5084706;27;46136;-64
2023/07/20 03:14:56;;;;;;;2.58;1.15;;;23.10;79.90;;;;;;5076045;27;45058;-65
2023/07/20 03:17:23;;;;;;;2.30;1.10;;;23.10;80.00;;;;;;5089048;27;45407;-63
2023/07/20 03:19:50;;;;;;;1.63;1.15;;;23.10;80.00;;;;;;5081558;27;45431;-63
2023/07/20 03:22:17;;;;;;;1.42;0.93;;;23.10;80.00;;;;;;5082411;28;47323;-63
2023/07/20 03:24:44;;;;;;;2.33;1.23;;;23.10;80.00;;;;;;5078515;27;46011;-64
2023/07/20 03:27:11;;;;;;;1.70;1.00;;;23.10;79.90;;;;;;5081594;27;45222;-63
2023/07/20 03:29:37;;;;;;;1.90;1.15;;;23.10;80.10;;;;;;5083561;27;45177;-64
2023/07/20 03:32:07;;;;;;;1.88;0.95;;;23.10;80.00;;;;;;5081243;27;46261;-64
2023/07/20 03:34:33;;;;;;;2.85;1.10;;;23.10;80.00;;;;;;5082924;27;45153;-64
2023/07/20 03:37:00;;;;;;;1.23;1.08;;;23.10;80.10;;;;;;5078496;27;45147;-63
2023/07/20 03:39:27;;;;;;;2.53;1.13;;;23.10;80.10;;;;;;5082478;28;45165;-62
2023/07/20 03:41:54;;;;;;;2.17;1.15;;;23.10;80.20;;;;;;5074425;27;46192;-64
2023/07/20 03:44:21;;;;;;;2.20;0.90;;;23.10;80.10;;;;;;5079169;27;45142;-64
2023/07/20 03:46:48;;;;;;;2.60;1.40;;;23.10;80.10;;;;;;5080797;27;45132;-64
2023/07/20 03:49:16;;;;;;;3.15;1.30;;;23.10;80.10;;;;;;5089864;27;45251;-63
2023/07/20 03:51:42;;;;;;;2.15;1.02;;;23.10;80.10;;;;;;5093105;27;45336;-63
2023/07/20 03:54:09;;;;;;;1.73;1.00;;;23.10;80.20;;;;;;5086374;27;45644;-64
2023/07/20 03:56:36;;;;;;;2.08;1.02;;;23.10;80.30;;;;;;5090449;27;45197;-63
2023/07/20 03:59:03;;;;;;;3.08;1.15;;;23.10;80.20;;;;;;5083638;27;45170;-63
2023/07/20 04:01:30;;;;;;;1.63;1.23;;;23.10;80.30;;;;;;5081358;27;45980;-65
2023/07/20 04:03:57;;;;;;;3.88;1.25;;;23.10;80.40;;;;;;5075306;27;46092;-63
2023/07/20 04:06:25;;;;;;;2.40;1.23;;;23.10;80.40;;;;;;5082022;28;45131;-63
2023/07/20 04:08:52;;;;;;;1.55;0.98;;;23.10;80.40;;;;;;5080667;27;45313;-63
2023/07/20 04:11:18;;;;;;;1.90;1.00;;;23.10;80.50;;;;;;5077406;27;45412;-63
2023/07/20 04:13:45;;;;;;;2.10;0.90;;;23.10;80.50;;;;;;5080430;27;45337;-64
2023/07/20 04:16:12;;;;;;;2.95;1.30;;;23.10;80.50;;;;;;5081611;27;45221;-63
2023/07/20 04:18:39;;;;;;;3.65;1.40;;;23.10;80.60;;;;;;5081747;27;45162;-64
2023/07/20 04:21:06;;;;;;;3.05;1.13;;;23.10;80.70;;;;;;5082956;27;45941;-63
2023/07/20 04:23:35;;;;;;;1.77;1.10;;;23.10;80.80;;;;;;5078622;27;45217;-64
2023/07/20 04:26:02;;;;;;;2.00;1.08;;;23.10;80.60;;;;;;5088842;27;45228;-64
2023/07/20 04:28:28;;;;;;;1.85;1.20;;;23.00;80.70;;;;;;5080603;27;45194;-63
2023/07/20 04:30:55;;;;;;;2.05;1.08;;;23.10;80.70;;;;;;5083055;27;46299;-63
2023/07/20 04:33:22;;;;;;;2.15;1.25;;;23.00;80.60;;;;;;5076582;27;45234;-64
2023/07/20 04:35:51;;;;;;;1.75;1.02;;;23.00;80.90;;;;;;5084297;27;45186;-63
2023/07/20 04:38:19;;;;;;;2.75;1.10;;;23.10;80.90;;;;;;5081025;27;45262;-64
2023/07/20 04:40:48;;;;;;;2.20;1.30;;;23.10;81.00;;;;;;5077537;27;45368;-63
2023/07/20 04:43:16;;;;;;;2.15;1.17;;;23.10;80.90;;;;;;5079002;27;45261;-64
2023/07/20 04:45:42;;;;;;;2.00;1.10;;;23.10;80.90;;;;;;5077939;27;45252;-63
2023/07/20 04:48:12;;;;;;;2.58;1.30;;;23.10;80.90;;;;;;5073155;27;45395;-64
2023/07/20 04:50:39;;;;;;;1.98;1.17;;;23.10;80.90;;;;;;5079285;27;48003;-64
2023/07/20 04:53:06;;;;;;;1.92;1.10;;;23.10;80.90;;;;;;5084355;27;45190;-63
2023/07/20 04:55:34;;;;;;;1.63;1.30;;;23.10;80.90;;;;;;5080261;27;45239;-63
2023/07/20 04:58:03;;;;;;;2.08;0.90;;;23.10;80.90;;;;;;5085110;28;45189;-64
2023/07/20 05:00:30;;;;;;;1.48;1.25;;;23.10;80.90;;;;;;5082223;27;46525;-64
2023/07/20 05:02:57;;;;;;;2.22;1.38;;;23.10;80.90;;;;;;5082283;28;45151;-63
2023/07/20 05:05:23;;;;;;;6.05;1.90;;;23.10;82.00;;;;;;5084027;27;45279;-63
2023/07/20 05:07:50;;;;;;;4.45;1.70;;;23.10;80.90;;;;;;5091874;27;45161;-63
2023/07/20 05:10:17;;;;;;;1.83;1.35;;;23.00;80.80;;;;;;5084094;27;46281;-65
2023/07/20 05:12:45;;;;;;;2.85;1.58;;;23.00;80.90;;;;;;5077226;27;45154;-64
2023/07/20 05:15:13;;;;;;;4.10;1.73;;;23.00;80.80;;;;;;5080306;27;45319;-64
2023/07/20 05:17:40;;;;;;;2.83;1.67;;;23.10;81.00;;;;;;5077278;27;45145;-64
2023/07/20 05:20:09;;;;;;;3.25;1.33;;;23.10;82.00;;;;;;5078249;27;46281;-64
2023/07/20 05:22:39;;;;;;;1.70;1.17;;;23.10;81.00;;;;;;5083391;27;45650;-64
2023/07/20 05:25:07;;;;;;;2.00;1.35;;;23.10;80.90;;;;;;5080550;27;45384;-64
2023/07/20 05:27:34;;;;;;;1.65;1.30;;;23.10;80.90;;;;;;5087416;27;45333;-64
2023/07/20 05:30:01;;;;;;;3.05;1.33;;;23.10;81.00;;;;;;5075374;28;45186;-64
2023/07/20 05:32:29;;;;;;;2.45;1.30;;;23.00;80.80;;;;;;5080800;27;45050;-65
2023/07/20 05:34:56;;;;;;;2.65;1.50;;;23.00;80.80;;;;;;5084868;28;45333;-64
2023/07/20 05:37:22;;;;;;;2.92;1.40;;;23.00;80.80;;;;;;5083779;27;45400;-64
2023/07/20 05:39:49;;;;;;;3.15;1.48;;;23.00;80.80;;;;;;5081657;27;47482;-64
2023/07/20 05:42:16;;;;;;;3.58;1.63;;;23.00;80.80;;;;;;5083105;27;45166;-64
2023/07/20 05:44:43;;;;;;;2.78;1.52;;;23.00;80.90;;;;;;5083938;27;45246;-64
2023/07/20 05:47:10;;;;;;;1.90;1.70;;;23.00;80.50;;;;;;5081255;27;45412;-65
2023/07/20 05:49:38;;;;;;;2.63;1.50;;;23.00;80.30;;;;;;5082624;28;45262;-64
2023/07/20 05:52:05;;;;;;;2.38;1.35;;;23.00;80.10;;;;;;5082594;28;45296;-63
2023/07/20 05:54:32;;;;;;;2.47;1.58;;;23.00;79.80;;;;;;5082991;28;45257;-64
2023/07/20 05:56:59;;;;;;;1.88;1.20;;;23.10;79.80;;;;;;5076725;27;45535;-64
2023/07/20 05:59:29;;;;;;;5.13;1.70;;;23.10;79.70;;;;;;5077415;27;46395;-64
2023/07/20 06:01:56;;;;;;;2.22;1.63;;;23.10;79.70;;;;;;5079195;27;46073;-64
2023/07/20 06:04:22;;;;;;;2.80;1.63;;;23.10;80.00;;;;;;5077911;27;45169;-64
2023/07/20 06:06:51;;;;;;;6.38;1.80;;;23.10;80.10;;;;;;5080658;27;45354;-64
2023/07/20 06:09:17;;;;;;;3.88;1.70;;;23.10;80.50;;;;;;5077171;27;46368;-64
2023/07/20 06:11:44;;;;;;;4.47;2.05;;;23.10;80.90;;;;;;5082188;28;45137;-64
2023/07/20 06:14:11;;;;;;;2.83;1.50;;;23.10;80.90;;;;;;5084947;27;45179;-64
2023/07/20 06:16:38;;;;;;;4.97;2.13;;;23.10;80.90;;;;;;5095609;27;45346;-65
2023/07/20 06:19:05;;;;;;;2.28;1.60;;;23.10;81.00;;;;;;5091862;27;45322;-64
2023/07/20 06:21:31;;;;;;;2.25;1.38;;;23.10;80.90;;;;;;5082832;28;45163;-64
2023/07/20 06:23:59;;;;;;;5.00;1.50;;;23.10;81.00;;;;;;5083249;28;45234;-65
2023/07/20 06:26:26;;;;;;;2.35;1.63;;;23.10;80.90;;;;;;5089918;27;45380;-64
2023/07/20 06:28:53;;;;;;;3.63;2.10;;;23.10;80.90;;;;;;5090150;27;45075;-64
2023/07/20 06:31:20;;;;;;;2.60;1.60;;;23.10;80.90;;;;;;5082222;27;45130;-64
2023/07/20 06:33:46;;;;;;;2.20;1.50;;;23.10;80.90;;;;;;5084078;27;45371;-65
2023/07/20 06:36:13;;;;;;;2.35;1.55;;;23.10;80.90;;;;;;5088028;27;45268;-64
2023/07/20 06:38:40;;;;;;;1.77;1.25;;;23.10;80.90;;;;;;5080225;27;47480;-64
2023/07/20 06:41:08;;;;;;;1.55;1.23;;;23.10;81.00;;;;;;5082681;27;45339;-64
2023/07/20 06:43:35;;;;;;;1.77;1.17;;;23.10;80.90;;;;;;5083424;27;45290;-64
2023/07/20 06:46:02;;;;;;;2.75;1.40;;;23.10;80.90;;;;;;5093254;27;45131;-64
2023/07/20 06:48:29;;;;;;;2.53;1.10;;;23.10;80.90;;;;;;5082046;27;46600;-64
2023/07/20 06:50:56;;;;;;;1.58;1.20;;;23.10;80.90;;;;;;5082936;27;45067;-64
2023/07/20 06:53:23;;;;;;;2.42;1.40;;;23.20;81.00;;;;;;5084560;27;45248;-64
2023/07/20 06:55:50;;;;;;;1.42;1.02;;;23.10;81.00;;;;;;5083400;27;45247;-64
2023/07/20 06:58:18;;;;;;;2.45;1.48;;;23.20;81.00;;;;;;5077222;27;46584;-64
2023/07/20 07:00:45;;;;;;;1.98;1.30;;;23.10;81.00;;;;;;5088228;27;45328;-64
2023/07/20 07:03:12;;;;;;;1.60;1.02;;;23.20;81.00;;;;;;5094154;27;45233;-64
2023/07/20 07:05:39;;;;;;;2.47;1.33;;;23.10;80.90;;;;;;5092052;27;45418;-63
2023/07/20 07:08:06;;;;;;;1.25;0.90;;;23.20;81.00;;;;;;5091119;27;46566;-65
2023/07/20 07:10:33;;;;;;;3.28;1.30;;;23.10;80.90;;;;;;5083606;27;45090;-64
2023/07/20 07:13:00;;;;;;;1.20;1.10;;;23.10;81.00;;;;;;5077369;27;45141;-65
2023/07/20 07:15:28;;;;;;;1.63;0.77;;;23.10;81.00;;;;;;5082101;28;45458;-64
2023/07/20 07:17:55;;;;;;;1.05;0.80;;;23.20;81.00;;;;;;5084071;27;46398;-64
2023/07/20 07:20:23;;;;;;;1.17;0.90;;;23.10;80.90;;;;;;5081492;27;45179;-64
2023/07/20 07:22:52;;;;;;;0.93;0.82;;;23.20;81.10;;;;;;5090053;27;45096;-64
2023/07/20 07:25:19;;;;;;;2.10;1.10;;;23.20;81.00;;;;;;5090640;27;45197;-65
2023/07/20 07:27:46;;;;;;;2.35;1.05;;;23.10;80.90;;;;;;5081577;27;45193;-65
2023/07/20 07:30:13;;;;;;;2.08;1.35;;;23.20;81.00;;;;;;5080423;27;45721;-65
2023/07/20 07:32:42;;;;;;;1.60;1.00;;;23.10;80.90;;;;;;5083018;28;45175;-64
2023/07/20 07:35:09;;;;;;;1.17;1.00;;;23.10;80.90;;;;;;5097739;27;45331;-64
2023/07/20 07:37:36;;;;;;;1.73;1.00;;;23.10;80.90;;;;;;5082492;28;46400;-64
2023/07/20 07:40:04;;;;;;;3.03;1.02;;;23.20;81.00;;;;;;5089931;27;45110;-64
2023/07/20 07:42:31;;;;;;;1.55;0.93;;;23.20;81.00;;;;;;5075264;27;45269;-64
2023/07/20 07:44:58;;;;;;;1.20;0.90;;;23.20;81.00;;;;;;5080902;27;45336;-64
2023/07/20 07:47:24;;;;;;;0.75;0.75;;;23.20;81.00;;;;;;5085165;27;48371;-63
2023/07/20 07:49:52;;;;;;;1.45;1.00;;;23.20;81.10;;;;;;5093002;27;45216;-64
2023/07/20 07:52:19;;;;;;;1.08;0.90;;;23.20;81.00;;;;;;5091609;27;45226;-63
2023/07/20 07:54:46;;;;;;;2.00;0.80;;;23.20;81.00;;;;;;5081066;27;45437;-65
2023/07/20 07:57:13;;;;;;;1.27;1.00;;;23.20;81.10;;;;;;5082044;27;46213;-64
2023/07/20 07:59:40;;;;;;;2.17;1.00;;;23.20;81.00;;;;;;5060680;28;45329;-63
2023/07/20 08:02:07;;;;;;;1.15;1.02;;;23.20;81.00;;;;;;5062494;28;45265;-61
2023/07/20 08:04:34;;;;;;;2.05;1.33;;;23.20;80.80;;;;;;5063721;28;45095;-64
2023/07/20 08:07:04;;;;;;;2.13;1.05;;;23.20;80.60;;;;;;5061906;28;45131;-64
2023/07/20 08:09:31;;;;;;;1.27;0.90;;;23.20;80.70;;;;;;5052400;28;45328;-64
2023/07/20 08:11:58;;;;;;;1.63;1.10;;;23.20;80.70;;;;;;5059646;28;45251;-64
2023/07/20 08:14:25;;;;;;;1.02;0.80;;;23.20;80.70;;;;;;5060718;28;45403;-65
2023/07/20 08:16:52;;;;;;;2.17;0.77;;;23.20;80.60;;;;;;5070145;28;45319;-64
2023/07/20 08:19:20;;;;;;;2.28;1.02;;;23.20;80.80;;;;;;5060810;28;45357;-64
2023/07/20 08:21:47;;;;;;;2.63;1.33;;;23.20;81.00;;;;;;5061151;28;45404;-64
2023/07/20 08:24:15;;;;;;;2.22;0.95;;;23.20;81.00;;;;;;5062274;28;45284;-64
2023/07/20 08:26:42;;;;;;;1.67;0.98;;;23.20;81.00;;;;;;5064508;28;45256;-64
2023/07/20 08:29:09;;;;;;;1.35;0.93;;;23.20;81.00;;;;;;5072746;28;45145;-64
2023/07/20 08:31:35;;;;;;;1.85;1.00;;;23.20;81.00;;;;;;5065416;28;45228;-64
2023/07/20 08:34:02;;;;;;;0.90;0.80;;;23.20;81.00;;;;;;5063890;28;45414;-64
2023/07/20 08:36:29;;;;;;;1.50;0.80;;;23.20;81.00;;;;;;5064508;28;47102;-64
2023/07/20 08:38:56;;;;;;;0.75;0.55;;;23.20;81.00;;;;;;5058086;28;45284;-64
2023/07/20 08:41:24;;;;;;;1.20;0.80;;;23.20;81.00;;;;;;5063743;28;45304;-64
2023/07/20 08:43:55;;;;;;;0.80;0.60;;;23.20;81.00;;;;;;5063807;28;45110;-64
2023/07/20 08:46:22;;;;;;;1.95;0.80;;;23.20;80.60;;;;;;5065126;28;47384;-64
2023/07/20 08:48:50;;;;;;;1.00;0.70;;;23.20;80.40;;;;;;5069688;28;45086;-64
2023/07/20 08:51:17;;;;;;;2.05;0.73;;;23.20;80.30;;;;;;5065115;28;45206;-64
2023/07/20 08:53:46;;;;;;;1.58;0.75;;;23.20;80.30;;;;;;5066040;28;45220;-64
2023/07/20 08:56:15;;;;;;;1.55;0.80;;;23.20;80.00;;;;;;5074422;28;45241;-64
2023/07/20 08:58:44;;;;;;;1.55;0.77;;;23.20;80.10;;;;;;5064150;27;45347;-64
2023/07/20 09:01:12;;;;;;;1.20;0.70;;;23.20;79.90;;;;;;5060688;28;45242;-64
2023/07/20 09:03:40;;;;;;;0.60;0.60;;;23.20;79.80;;;;;;5082696;28;45200;-64
2023/07/20 09:06:06;;;;;;;0.68;0.65;;;23.20;79.60;;;;;;5083114;28;46506;-63
2023/07/20 09:08:33;;;;;;;0.73;0.57;;;23.20;79.70;;;;;;5088189;27;45731;-64
2023/07/20 09:11:00;;;;;;;0.80;0.70;;;23.20;79.60;;;;;;5063507;27;45277;-64
2023/07/20 09:13:27;;;;;;;0.50;0.50;;;23.20;79.50;;;;;;5084352;28;45325;-64
2023/07/20 09:15:55;;;;;;;0.45;0.45;;;23.20;79.30;;;;;;5084248;28;45228;-64
2023/07/20 09:18:26;;;;;;;0.75;0.50;;;23.20;79.20;;;;;;5064136;28;45210;-64
2023/07/20 09:20:53;;;;;;;0.50;0.40;;;23.20;79.10;;;;;;5083211;27;45162;-63
2023/07/20 09:23:20;;;;;;;0.90;0.70;;;23.20;79.00;;;;;;5084930;28;45412;-63
2023/07/20 09:25:50;;;;;;;0.75;0.63;;;23.20;78.90;;;;;;5061163;27;47380;-64
2023/07/20 09:28:18;;;;;;;0.77;0.65;;;23.20;78.90;;;;;;5073822;28;46185;-64
2023/07/20 09:30:44;;;;;;;0.85;0.60;;;23.20;78.90;;;;;;5080870;28;45395;-64
2023/07/20 09:33:22;;;;;;;0.82;0.57;;;23.20;78.90;;;;;;5082210;28;45314;-63
2023/07/20 09:35:49;;;;;;;0.45;0.45;;;23.20;78.80;;;;;;5064232;27;47045;-64
2023/07/20 09:38:16;;;;;;;0.40;0.40;;;23.20;78.70;;;;;;5080180;27;45730;-64
2023/07/20 09:40:43;;;;;;;1.20;0.57;;;23.20;78.70;;;;;;5077363;27;45243;-63
2023/07/20 09:43:10;;;;;;;0.82;0.57;;;23.20;78.50;;;;;;5092971;27;45276;-65
2023/07/20 09:45:41;;;;;;;1.13;0.60;;;23.20;78.50;;;;;;5076167;28;45461;-64
2023/07/20 09:48:09;;;;;;;7.35;1.45;;;23.20;78.70;;;;;;5085035;27;45111;-65
2023/07/20 09:50:42;;;;;;;0.40;0.40;;;23.20;78.50;;;;;;5082797;28;45081;-66
2023/07/20 09:53:12;;;;;;;0.75;0.50;;;23.20;78.50;;;;;;5080628;28;45153;-64
2023/07/20 09:55:40;;;;;;;0.50;0.50;;;23.20;78.50;;;;;;5077844;28;46832;-64
2023/07/20 09:58:09;;;;;;;1.15;0.50;;;23.20;78.30;;;;;;5082721;28;45269;-66
2023/07/20 10:00:37;;;;;;;0.47;0.40;;;23.20;78.20;;;;;;5086419;27;45346;-64
2023/07/20 10:03:04;;;;;;;0.43;0.43;;;23.20;78.00;;;;;;5079830;27;45360;-64
2023/07/20 10:05:34;;;;;;;0.50;0.43;;;23.20;78.00;;;;;;5072387;27;45254;-65
2023/07/20 10:08:05;;;;;;;0.50;0.43;;;23.20;77.90;;;;;;5081529;27;45163;-64
2023/07/20 10:10:34;;;;;;;0.57;0.30;;;23.20;77.80;;;;;;5076405;27;45411;-64
2023/07/20 10:13:03;;;;;;;0.43;0.40;;;23.20;77.70;;;;;;5080843;27;45248;-64
2023/07/20 10:15:35;;;;;;;0.70;0.30;;;23.20;77.80;;;;;;5082214;27;46494;-63
2023/07/20 10:18:08;;;;;;;0.40;0.40;;;23.20;77.70;;;;;;5083409;27;45185;-64
2023/07/20 10:20:37;;;;;;;0.65;0.50;;;23.20;77.60;;;;;;5073977;27;45379;-64
2023/07/20 10:23:06;;;;;;;0.63;0.40;;;23.20;77.50;;;;;;5077385;28;45319;-64
2023/07/20 10:25:37;;;;;;;0.40;0.40;;;23.20;77.40;;;;;;5073507;28;46448;-63
2023/07/20 10:28:05;;;;;;;0.32;0.32;;;23.30;77.50;;;;;;5080138;28;45224;-64
2023/07/20 10:30:34;;;;;;;1.13;0.57;;;23.30;77.40;;;;;;5072298;27;45225;-63
2023/07/20 10:33:02;;;;;;;0.45;0.38;;;23.20;77.30;;;;;;5076044;27;45197;-64
2023/07/20 10:35:29;;;;;;;0.47;0.30;;;23.30;77.40;;;;;;5071559;27;45404;-64
2023/07/20 10:38:01;;;;;;;0.20;0.20;;;23.30;77.60;;;;;;5083352;27;46379;-63
2023/07/20 10:40:30;;;;;;;0.40;0.40;;;23.20;77.50;;;;;;5080882;27;45367;-64
2023/07/20 10:43:07;;;;;;;0.32;0.32;;;23.30;77.90;;;;;;5071297;27;45505;-64
2023/07/20 10:45:35;;;;;;;0.47;0.35;;;23.20;77.90;;;;;;5080722;27;45115;-63
2023/07/20 10:48:05;;;;;;;1.35;0.30;;;23.20;77.70;;;;;;5069662;28;45462;-64
2023/07/20 10:50:33;;;;;;;0.35;0.35;;;23.20;77.80;;;;;;5072206;27;45265;-63
2023/07/20 10:53:12;;;;;;;0.73;0.50;;;23.20;77.80;;;;;;5082538;27;45405;-63
2023/07/20 10:55:40;;;;;;;0.40;0.40;;;23.20;77.70;;;;;;5077961;27;48076;-63
2023/07/20 10:58:12;;;;;;;0.32;0.32;;;23.20;77.70;;;;;;5071284;27;45095;-64
2023/07/20 11:00:56;;;;;;;0.28;0.28;;;23.20;78.50;;;;;;5082303;27;45233;-64
2023/07/20 11:03:31;;;;;;;0.30;0.30;;;23.20;77.40;;;;;;5073372;27;45490;-64
2023/07/20 11:05:58;;;;;;;0.30;0.30;;;23.20;77.30;;;;;;5069129;27;48548;-65
2023/07/20 11:08:41;;;;;;;0.30;0.30;;;23.20;77.10;;;;;;5086460;27;45469;-64
2023/07/20 11:11:25;;;;;;;0.43;0.30;;;23.20;76.80;;;;;;5079611;27;45367;-64
2023/07/20 11:13:56;;;;;;;0.30;0.30;;;23.20;76.80;;;;;;5076307;27;45324;-64
2023/07/20 11:16:34;;;;;;;0.40;0.30;;;23.30;76.80;;;;;;5080868;27;46335;-64
2023/07/20 11:19:01;;;;;;;0.40;0.30;;;23.30;76.80;;;;;;5087616;27;45184;-64
2023/07/20 11:21:29;;;;;;;0.38;0.38;;;23.30;76.60;;;;;;5090895;27;45160;-64
2023/07/20 11:23:56;;;;;;;0.85;0.40;;;23.30;76.50;;;;;;5084785;27;45434;-64
2023/07/20 11:26:24;;;;;;;0.40;0.38;;;23.30;76.40;;;;;;5092274;27;45443;-64
2023/07/20 11:28:52;;;;;;;0.40;0.30;;;23.30;76.30;;;;;;5093824;27;45198;-64
2023/07/20 11:31:19;;;;;;;0.93;0.43;;;23.30;76.20;;;;;;5076482;27;45226;-63
2023/07/20 11:33:46;;;;;;;0.40;0.30;;;23.30;76.20;;;;;;5092669;27;45063;-64
2023/07/20 11:36:13;;;;;;;0.30;0.30;;;23.30;76.20;;;;;;5082569;28;48236;-64
2023/07/20 11:38:43;;;;;;;0.32;0.32;;;23.30;76.30;;;;;;5082862;28;45213;-64
2023/07/20 11:41:10;;;;;;;0.40;0.30;;;23.30;76.30;;;;;;5084134;27;45308;-64
2023/07/20 11:43:39;;;;;;;0.20;0.20;;;23.30;76.40;;;;;;5080001;27;45217;-64
2023/07/20 11:46:07;;;;;;;0.50;0.40;;;23.30;76.60;;;;;;5082681;28;46147;-64
2023/07/20 11:48:33;;;;;;;0.30;0.30;;;23.30;76.60;;;;;;5068872;28;45363;-64
2023/07/20 11:51:00;;;;;;;0.65;0.30;;;23.30;76.60;;;;;;5076070;28;45312;-64
2023/07/20 11:53:27;;;;;;;0.30;0.30;;;23.30;76.60;;;;;;5082563;28;45196;-64
2023/07/20 11:55:55;;;;;;;0.52;0.40;;;23.30;76.60;;;;;;5082701;28;47198;-63
2023/07/20 11:58:21;;;;;;;0.55;0.40;;;23.30;76.60;;;;;;5083712;27;45397;-64
2023/07/20 12:00:50;;;;;;;0.25;0.25;;;23.30;76.60;;;;;;5062074;28;45306;-64
2023/07/20 12:03:17;;;;;;;0.20;0.20;;;23.30;76.60;;;;;;5045897;28;45278;-63
2023/07/20 12:05:44;;;;;;;0.60;0.40;;;23.30;76.60;;;;;;5062482;28;45409;-64
2023/07/20 12:08:11;;;;;;;0.65;0.50;;;23.30;76.50;;;;;;5061872;28;45145;-64
2023/07/20 12:10:43;;;;;;;0.25;0.25;;;23.30;76.40;;;;;;5053594;28;45392;-65
2023/07/20 12:13:11;;;;;;;0.57;0.40;;;23.30;76.20;;;;;;5062169;28;45272;-64
2023/07/20 12:15:38;;;;;;;0.30;0.30;;;23.30;76.00;;;;;;5065305;28;47114;-64
2023/07/20 12:18:06;;;;;;;0.28;0.25;;;23.30;76.00;;;;;;5062095;28;46364;-64
2023/07/20 12:20:35;;;;;;;0.52;0.38;;;23.30;75.80;;;;;;5059552;28;45182;-64
2023/07/20 12:23:04;;;;;;;0.50;0.40;;;23.40;76.00;;;;;;5061946;28;45189;-64
2023/07/20 12:25:41;;;;;;;0.40;0.30;;;23.30;75.80;;;;;;5062394;28;45131;-63
2023/07/20 12:28:09;;;;;;;0.60;0.50;;;23.30;75.60;;;;;;5053777;28;46046;-63
2023/07/20 12:30:36;;;;;;;0.25;0.25;;;23.30;75.70;;;;;;5045045;28;45191;-64
2023/07/20 12:33:04;;;;;;;0.47;0.40;;;23.30;75.50;;;;;;5059550;28;45244;-64
2023/07/20 12:35:33;;;;;;;0.40;0.40;;;23.30;75.40;;;;;;5061191;28;46435;-64
2023/07/20 12:38:00;;;;;;;0.57;0.40;;;23.30;75.40;;;;;;5055099;28;45173;-63
2023/07/20 12:40:27;;;;;;;0.30;0.30;;;23.30;75.30;;;;;;5060694;28;45145;-63
2023/07/20 12:42:54;;;;;;;0.55;0.35;;;23.30;75.40;;;;;;5062160;28;45197;-64
2023/07/20 12:45:21;;;;;;;0.30;0.30;;;23.30;75.30;;;;;;5051473;28;47589;-65
2023/07/20 12:47:48;;;;;;;0.30;0.30;;;23.30;75.30;;;;;;5055421;28;45231;-64
2023/07/20 12:50:14;;;;;;;0.50;0.40;;;23.30;75.30;;;;;;5068534;28;45214;-63
2023/07/20 12:52:42;;;;;;;0.25;0.25;;;23.30;75.40;;;;;;5062163;28;45110;-64